Terminal Aerodrome Forecast
Issued by NWS

Home | Current Version | Previous Version | Text Only | Print | Product List | Glossary On
Versions: 1 2 3 4 5 6 7 8 9 10 11 12 13 14 15 16 17 18 19 20 21 22 23 24 25 26 27 28 29 30
346
FTUS41 KBOX 080538
TAFFMH
TAF
KFMH 080538Z 0806/0906 06013G21KT P6SM OVC030
     FM080800 06016G26KT 2SM -SNRA OVC025
     FM081000 05017G28KT 1SM -SN OVC020
     FM081130 05018G31KT 1/4SM +SN OVC020
     FM081700 02023G46KT 1/2SM SN OVC010
     FM090000 01015G29KT 2SM -SN OVC015
     FM090300 01011G21KT 2SM -SHSN OVC015=

USA.gov is the U.S. government's official web portal to all federal, state and local government web resources and services.